sensor_id;sensor_type;location;lat;lon;timestamp;pressure;altitude;pressure_sealevel;temperature;humidity
1726;BME280;41776;48.260;8.928;2024-01-15T00:01:21;52422.59;;;-145.69;58.86
1726;BME280;41776;48.260;8.928;2024-01-15T00:03:49;52412.69;;;-145.69;58.96
1726;BME280;41776;48.260;8.928;2024-01-15T00:06:15;52452.31;;;-145.69;59.01
1726;BME280;41776;48.260;8.928;2024-01-15T00:08:41;52416.66;;;-145.69;59.36
1726;BME280;41776;48.260;8.928;2024-01-15T00:11:08;52398.84;;;-145.69;59.38
1726;BME280;41776;48.260;8.928;2024-01-15T00:13:34;52428.53;;;-145.69;59.75
1726;BME280;41776;48.260;8.928;2024-01-15T00:16:01;52369.13;;;-145.69;59.65
1726;BME280;41776;48.260;8.928;2024-01-15T00:18:27;52408.75;;;-145.69;59.61
1726;BME280;41776;48.260;8.928;2024-01-15T00:20:55;52436.47;;;-145.69;59.58
1726;BME280;41776;48.260;8.928;2024-01-15T00:23:22;52434.47;;;-145.69;59.88
1726;BME280;41776;48.260;8.928;2024-01-15T00:25:51;52400.81;;;-145.69;59.76
1726;BME280;41776;48.260;8.928;2024-01-15T00:28:17;52436.47;;;-145.69;59.53
1726;BME280;41776;48.260;8.928;2024-01-15T00:30:44;52442.41;;;-145.69;59.51
1726;BME280;41776;48.260;8.928;2024-01-15T00:33:10;52408.75;;;-145.69;59.01
1726;BME280;41776;48.260;8.928;2024-01-15T00:35:40;52440.44;;;-145.69;58.81
1726;BME280;41776;48.260;8.928;2024-01-15T00:38:08;52426.56;;;-145.69;58.56
1726;BME280;41776;48.260;8.928;2024-01-15T00:40:34;52379.03;;;-145.69;58.33
1726;BME280;41776;48.260;8.928;2024-01-15T00:43:01;52424.59;;;-145.69;58.16
1726;BME280;41776;48.260;8.928;2024-01-15T00:45:31;52436.47;;;-145.69;58.05
1726;BME280;41776;48.260;8.928;2024-01-15T00:47:57;52408.75;;;-145.69;57.80
1726;BME280;41776;48.260;8.928;2024-01-15T00:50:26;52408.75;;;-145.69;57.75
1726;BME280;41776;48.260;8.928;2024-01-15T00:52:52;52398.84;;;-145.69;57.69
1726;BME280;41776;48.260;8.928;2024-01-15T00:55:26;52402.78;;;-145.69;57.53
1726;BME280;41776;48.260;8.928;2024-01-15T00:57:53;52412.69;;;-145.69;57.59
1726;BME280;41776;48.260;8.928;2024-01-15T01:00:21;52416.66;;;-145.69;57.42
1726;BME280;41776;48.260;8.928;2024-01-15T01:02:48;52396.84;;;-145.69;57.25
1726;BME280;41776;48.260;8.928;2024-01-15T01:05:14;52404.78;;;-145.69;56.93
1726;BME280;41776;48.260;8.928;2024-01-15T01:07:42;52408.75;;;-145.69;57.04
1726;BME280;41776;48.260;8.928;2024-01-15T01:10:09;52398.84;;;-145.69;56.92
1726;BME280;41776;48.260;8.928;2024-01-15T01:12:37;52371.13;;;-145.69;57.00
1726;BME280;41776;48.260;8.928;2024-01-15T01:15:07;52396.84;;;-145.69;57.20
1726;BME280;41776;48.260;8.928;2024-01-15T01:17:36;52420.63;;;-145.69;56.97
1726;BME280;41776;48.260;8.928;2024-01-15T01:20:07;52424.59;;;-145.69;57.03
1726;BME280;41776;48.260;8.928;2024-01-15T01:22:34;52373.09;;;-145.69;57.28
1726;BME280;41776;48.260;8.928;2024-01-15T01:25:01;52440.44;;;-145.69;56.89
1726;BME280;41776;48.260;8.928;2024-01-15T01:27:27;52434.47;;;-145.69;56.96
1726;BME280;41776;48.260;8.928;2024-01-15T01:29:55;52412.69;;;-145.69;57.33
1726;BME280;41776;48.260;8.928;2024-01-15T01:32:21;52442.41;;;-145.69;57.15
1726;BME280;41776;48.260;8.928;2024-01-15T01:34:50;52398.84;;;-145.69;57.09
1726;BME280;41776;48.260;8.928;2024-01-15T01:37:17;52420.63;;;-145.69;56.97
1726;BME280;41776;48.260;8.928;2024-01-15T01:39:44;52396.84;;;-145.69;56.90
1726;BME280;41776;48.260;8.928;2024-01-15T01:42:11;52416.66;;;-145.69;56.72
1726;BME280;41776;48.260;8.928;2024-01-15T01:44:38;52428.53;;;-145.69;56.77
1726;BME280;41776;48.260;8.928;2024-01-15T01:47:09;52373.09;;;-145.69;56.59
1726;BME280;41776;48.260;8.928;2024-01-15T01:49:36;52392.91;;;-145.69;56.75
1726;BME280;41776;48.260;8.928;2024-01-15T01:52:08;52428.53;;;-145.69;56.40
1726;BME280;41776;48.260;8.928;2024-01-15T01:54:36;52418.63;;;-145.69;56.40
1726;BME280;41776;48.260;8.928;2024-01-15T01:57:05;52404.78;;;-145.69;56.17
1726;BME280;41776;48.260;8.928;2024-01-15T01:59:33;52416.66;;;-145.69;55.82
1726;BME280;41776;48.260;8.928;2024-01-15T02:02:02;52379.03;;;-145.69;56.40
1726;BME280;41776;48.260;8.928;2024-01-15T02:04:31;52408.75;;;-145.69;56.07
1726;BME280;41776;48.260;8.928;2024-01-15T02:06:59;52444.38;;;-145.69;55.87
1726;BME280;41776;48.260;8.928;2024-01-15T02:09:25;52404.78;;;-145.69;55.94
1726;BME280;41776;48.260;8.928;2024-01-15T02:11:52;52448.34;;;-145.69;56.41
1726;BME280;41776;48.260;8.928;2024-01-15T02:14:19;52432.50;;;-145.69;56.07
1726;BME280;41776;48.260;8.928;2024-01-15T02:16:45;52404.78;;;-145.69;55.97
1726;BME280;41776;48.260;8.928;2024-01-15T02:19:15;52386.97;;;-145.69;56.01
1726;BME280;41776;48.260;8.928;2024-01-15T02:21:42;52416.66;;;-145.69;56.19
1726;BME280;41776;48.260;8.928;2024-01-15T02:24:11;52444.38;;;-145.69;56.58
1726;BME280;41776;48.260;8.928;2024-01-15T02:26:37;52394.88;;;-145.69;56.53
1726;BME280;41776;48.260;8.928;2024-01-15T02:29:05;52402.78;;;-145.69;56.30
1726;BME280;41776;48.260;8.928;2024-01-15T02:31:33;52408.75;;;-145.69;56.35
1726;BME280;41776;48.260;8.928;2024-01-15T02:33:59;52442.41;;;-145.69;56.57
1726;BME280;41776;48.260;8.928;2024-01-15T02:36:26;52404.78;;;-145.69;56.25
1726;BME280;41776;48.260;8.928;2024-01-15T02:38:52;52444.38;;;-145.69;56.39
1726;BME280;41776;48.260;8.928;2024-01-15T02:41:20;52402.78;;;-145.69;56.57
1726;BME280;41776;48.260;8.928;2024-01-15T02:43:46;52408.75;;;-145.69;56.65
1726;BME280;41776;48.260;8.928;2024-01-15T02:46:13;52400.81;;;-145.69;56.48
1726;BME280;41776;48.260;8.928;2024-01-15T02:48:39;52375.06;;;-145.69;56.66
1726;BME280;41776;48.260;8.928;2024-01-15T02:51:06;52390.91;;;-145.69;56.92
1726;BME280;41776;48.260;8.928;2024-01-15T02:53:32;52420.63;;;-145.69;56.51
1726;BME280;41776;48.260;8.928;2024-01-15T02:55:59;52428.53;;;-145.69;56.62
1726;BME280;41776;48.260;8.928;2024-01-15T02:58:27;52420.63;;;-145.69;56.67
1726;BME280;41776;48.260;8.928;2024-01-15T03:00:53;52400.81;;;-145.69;56.80
1726;BME280;41776;48.260;8.928;2024-01-15T03:03:20;52396.84;;;-145.69;56.55
1726;BME280;41776;48.260;8.928;2024-01-15T03:05:46;52440.44;;;-145.69;56.47
1726;BME280;41776;48.260;8.928;2024-01-15T03:08:12;52416.66;;;-145.69;56.91
1726;BME280;41776;48.260;8.928;2024-01-15T03:10:39;52428.53;;;-145.69;56.55
1726;BME280;41776;48.260;8.928;2024-01-15T03:13:05;52394.88;;;-145.69;56.65
1726;BME280;41776;48.260;8.928;2024-01-15T03:15:33;52384.97;;;-145.69;56.48
1726;BME280;41776;48.260;8.928;2024-01-15T03:18:00;52408.75;;;-145.69;56.36
1726;BME280;41776;48.260;8.928;2024-01-15T03:20:27;52414.69;;;-145.69;56.60
1726;BME280;41776;48.260;8.928;2024-01-15T03:22:53;52379.03;;;-145.69;56.30
1726;BME280;41776;48.260;8.928;2024-01-15T03:25:20;52386.97;;;-145.69;56.40
1726;BME280;41776;48.260;8.928;2024-01-15T03:27:49;52416.66;;;-145.69;56.42
1726;BME280;41776;48.260;8.928;2024-01-15T03:30:16;52412.69;;;-145.69;56.41
1726;BME280;41776;48.260;8.928;2024-01-15T03:32:44;52428.53;;;-145.69;56.13
1726;BME280;41776;48.260;8.928;2024-01-15T03:35:12;52444.38;;;-145.69;56.40
1726;BME280;41776;48.260;8.928;2024-01-15T03:37:39;52412.69;;;-145.69;56.24
1726;BME280;41776;48.260;8.928;2024-01-15T03:40:07;52390.91;;;-145.69;56.44
1726;BME280;41776;48.260;8.928;2024-01-15T03:42:34;52412.69;;;-145.69;56.09
1726;BME280;41776;48.260;8.928;2024-01-15T03:45:00;52434.47;;;-145.69;56.35
1726;BME280;41776;48.260;8.928;2024-01-15T03:47:28;52394.88;;;-145.69;56.17
1726;BME280;41776;48.260;8.928;2024-01-15T03:49:56;52414.69;;;-145.69;56.19
1726;BME280;41776;48.260;8.928;2024-01-15T03:52:22;52404.78;;;-145.69;56.05
1726;BME280;41776;48.260;8.928;2024-01-15T03:54:49;52422.59;;;-145.69;56.42
1726;BME280;41776;48.260;8.928;2024-01-15T03:57:15;52434.47;;;-145.69;56.46
1726;BME280;41776;48.260;8.928;2024-01-15T03:59:42;52390.91;;;-145.69;55.96
1726;BME280;41776;48.260;8.928;2024-01-15T04:02:08;52384.97;;;-145.69;56.05
1726;BME280;41776;48.260;8.928;2024-01-15T04:04:35;52414.69;;;-145.69;56.15
1726;BME280;41776;48.260;8.928;2024-01-15T04:07:03;52392.91;;;-145.69;56.45
1726;BME280;41776;48.260;8.928;2024-01-15T04:09:30;52420.63;;;-145.69;56.28
1726;BME280;41776;48.260;8.928;2024-01-15T04:11:56;52400.81;;;-145.69;56.32
1726;BME280;41776;48.260;8.928;2024-01-15T04:14:23;52386.97;;;-145.69;56.42
1726;BME280;41776;48.260;8.928;2024-01-15T04:16:49;52420.63;;;-145.69;56.06
1726;BME280;41776;48.260;8.928;2024-01-15T04:19:16;52412.69;;;-145.69;56.19
1726;BME280;41776;48.260;8.928;2024-01-15T04:21:42;52392.91;;;-145.69;56.47
1726;BME280;41776;48.260;8.928;2024-01-15T04:24:10;52410.72;;;-145.69;56.45
1726;BME280;41776;48.260;8.928;2024-01-15T04:26:36;52402.78;;;-145.69;56.26
1726;BME280;41776;48.260;8.928;2024-01-15T04:29:03;52400.81;;;-145.69;56.44
1726;BME280;41776;48.260;8.928;2024-01-15T04:31:29;52414.69;;;-145.69;56.36
1726;BME280;41776;48.260;8.928;2024-01-15T04:33:56;52406.75;;;-145.69;56.82
1726;BME280;41776;48.260;8.928;2024-01-15T04:36:22;52428.53;;;-145.69;57.15
1726;BME280;41776;48.260;8.928;2024-01-15T04:38:49;52400.81;;;-145.69;56.98
1726;BME280;41776;48.260;8.928;2024-01-15T04:41:17;52408.75;;;-145.69;57.32
1726;BME280;41776;48.260;8.928;2024-01-15T04:43:43;52408.75;;;-145.69;57.37
1726;BME280;41776;48.260;8.928;2024-01-15T04:46:10;52420.63;;;-145.69;57.17
1726;BME280;41776;48.260;8.928;2024-01-15T04:48:36;52416.66;;;-145.69;57.38
1726;BME280;41776;48.260;8.928;2024-01-15T04:51:04;52400.81;;;-145.69;57.36
1726;BME280;41776;48.260;8.928;2024-01-15T04:53:31;52432.50;;;-145.69;57.15
1726;BME280;41776;48.260;8.928;2024-01-15T04:55:57;52381.00;;;-145.69;56.94
1726;BME280;41776;48.260;8.928;2024-01-15T04:58:25;52402.78;;;-145.69;57.17
1726;BME280;41776;48.260;8.928;2024-01-15T05:00:52;52400.81;;;-145.69;56.88
1726;BME280;41776;48.260;8.928;2024-01-15T05:03:19;52394.88;;;-145.69;57.17
1726;BME280;41776;48.260;8.928;2024-01-15T05:05:46;52440.44;;;-145.69;56.97
1726;BME280;41776;48.260;8.928;2024-01-15T05:08:12;52432.50;;;-145.69;57.19
1726;BME280;41776;48.260;8.928;2024-01-15T05:10:38;52363.19;;;-145.69;57.22
1726;BME280;41776;48.260;8.928;2024-01-15T05:13:05;52420.63;;;-145.69;56.99
1726;BME280;41776;48.260;8.928;2024-01-15T05:15:33;52398.84;;;-145.69;57.52
1726;BME280;41776;48.260;8.928;2024-01-15T05:17:59;52390.91;;;-145.69;57.38
1726;BME280;41776;48.260;8.928;2024-01-15T05:20:25;52412.69;;;-145.69;57.24
1726;BME280;41776;48.260;8.928;2024-01-15T05:22:52;52432.50;;;-145.69;57.80
1726;BME280;41776;48.260;8.928;2024-01-15T05:25:18;52412.69;;;-145.69;57.08
1726;BME280;41776;48.260;8.928;2024-01-15T05:27:45;52381.00;;;-145.69;57.30
1726;BME280;41776;48.260;8.928;2024-01-15T05:30:12;52406.75;;;-145.69;57.54
1726;BME280;41776;48.260;8.928;2024-01-15T05:32:40;52432.50;;;-145.69;57.51
1726;BME280;41776;48.260;8.928;2024-01-15T05:35:07;52410.72;;;-145.69;57.34
1726;BME280;41776;48.260;8.928;2024-01-15T05:37:33;52408.75;;;-145.69;57.63
1726;BME280;41776;48.260;8.928;2024-01-15T05:39:59;52394.88;;;-145.69;57.88
1726;BME280;41776;48.260;8.928;2024-01-15T05:42:26;52412.69;;;-145.69;57.80
1726;BME280;41776;48.260;8.928;2024-01-15T05:44:55;52404.78;;;-145.69;57.83
1726;BME280;41776;48.260;8.928;2024-01-15T05:47:22;52408.75;;;-145.69;57.55
1726;BME280;41776;48.260;8.928;2024-01-15T05:49:50;52392.91;;;-145.69;57.97
1726;BME280;41776;48.260;8.928;2024-01-15T05:52:16;52426.56;;;-145.69;57.83
1726;BME280;41776;48.260;8.928;2024-01-15T05:54:43;52422.59;;;-145.69;58.08
1726;BME280;41776;48.260;8.928;2024-01-15T05:57:09;52392.91;;;-145.69;57.85
1726;BME280;41776;48.260;8.928;2024-01-15T05:59:35;52408.75;;;-145.69;57.97
1726;BME280;41776;48.260;8.928;2024-01-15T06:02:02;52377.06;;;-145.69;58.01
1726;BME280;41776;48.260;8.928;2024-01-15T06:04:32;52424.59;;;-145.69;58.24
1726;BME280;41776;48.260;8.928;2024-01-15T06:07:00;52424.59;;;-145.69;57.86
1726;BME280;41776;48.260;8.928;2024-01-15T06:09:26;52424.59;;;-145.69;57.38
1726;BME280;41776;48.260;8.928;2024-01-15T06:11:53;52390.91;;;-145.69;56.97
1726;BME280;41776;48.260;8.928;2024-01-15T06:14:20;52365.16;;;-145.69;57.00
1726;BME280;41776;48.260;8.928;2024-01-15T06:16:47;52434.47;;;-145.69;56.99
1726;BME280;41776;48.260;8.928;2024-01-15T06:19:14;52412.69;;;-145.69;56.47
1726;BME280;41776;48.260;8.928;2024-01-15T06:21:41;52392.91;;;-145.69;56.42
1726;BME280;41776;48.260;8.928;2024-01-15T06:24:11;52379.03;;;-145.69;56.47
1726;BME280;41776;48.260;8.928;2024-01-15T06:26:38;52428.53;;;-145.69;56.34
1726;BME280;41776;48.260;8.928;2024-01-15T06:29:05;52396.84;;;-145.69;56.50
1726;BME280;41776;48.260;8.928;2024-01-15T06:31:34;52440.44;;;-145.69;56.52
1726;BME280;41776;48.260;8.928;2024-01-15T06:34:01;52402.78;;;-145.69;56.86
1726;BME280;41776;48.260;8.928;2024-01-15T06:36:27;52414.69;;;-145.69;56.33
1726;BME280;41776;48.260;8.928;2024-01-15T06:38:55;52394.88;;;-145.69;56.47
1726;BME280;41776;48.260;8.928;2024-01-15T06:41:23;52390.91;;;-145.69;56.08
1726;BME280;41776;48.260;8.928;2024-01-15T06:43:50;52396.84;;;-145.69;56.21
1726;BME280;41776;48.260;8.928;2024-01-15T06:46:19;52400.81;;;-145.69;55.95
1726;BME280;41776;48.260;8.928;2024-01-15T06:48:46;52381.00;;;-145.69;55.27
1726;BME280;41776;48.260;8.928;2024-01-15T06:51:13;52424.59;;;-145.69;54.43
1726;BME280;41776;48.260;8.928;2024-01-15T06:53:39;52408.75;;;-145.69;54.30
1726;BME280;41776;48.260;8.928;2024-01-15T06:56:06;52371.13;;;-145.69;53.22
1726;BME280;41776;48.260;8.928;2024-01-15T06:58:34;52420.63;;;-145.69;52.43
1726;BME280;41776;48.260;8.928;2024-01-15T07:01:01;52418.63;;;-145.69;52.18
1726;BME280;41776;48.260;8.928;2024-01-15T07:03:28;52396.84;;;-145.69;51.50
1726;BME280;41776;48.260;8.928;2024-01-15T07:05:55;52392.91;;;-145.69;51.32
1726;BME280;41776;48.260;8.928;2024-01-15T07:08:22;52390.91;;;-145.69;50.79
1726;BME280;41776;48.260;8.928;2024-01-15T07:10:48;52377.06;;;-145.69;51.23
1726;BME280;41776;48.260;8.928;2024-01-15T07:13:15;52396.84;;;-145.69;51.53
1726;BME280;41776;48.260;8.928;2024-01-15T07:15:43;52414.69;;;-145.69;50.82
1726;BME280;41776;48.260;8.928;2024-01-15T07:18:09;52377.06;;;-145.69;50.33
1726;BME280;41776;48.260;8.928;2024-01-15T07:20:36;52414.69;;;-145.69;50.34
1726;BME280;41776;48.260;8.928;2024-01-15T07:23:03;52402.78;;;-145.69;50.04
1726;BME280;41776;48.260;8.928;2024-01-15T07:25:30;52371.13;;;-145.69;49.39
1726;BME280;41776;48.260;8.928;2024-01-15T07:27:56;52404.78;;;-145.69;49.96
1726;BME280;41776;48.260;8.928;2024-01-15T07:30:23;52396.84;;;-145.69;49.36
1726;BME280;41776;48.260;8.928;2024-01-15T07:32:51;52392.91;;;-145.69;49.20
1726;BME280;41776;48.260;8.928;2024-01-15T07:35:18;52416.66;;;-145.69;49.85
1726;BME280;41776;48.260;8.928;2024-01-15T07:37:44;52414.69;;;-145.69;49.35
1726;BME280;41776;48.260;8.928;2024-01-15T07:40:11;52396.84;;;-145.69;48.80
1726;BME280;41776;48.260;8.928;2024-01-15T07:42:38;52412.69;;;-145.69;48.40
1726;BME280;41776;48.260;8.928;2024-01-15T07:45:05;52390.91;;;-145.69;48.40
1726;BME280;41776;48.260;8.928;2024-01-15T07:47:31;52357.25;;;-145.69;47.88
1726;BME280;41776;48.260;8.928;2024-01-15T07:49:59;52400.81;;;-145.69;47.58
1726;BME280;41776;48.260;8.928;2024-01-15T07:52:25;52414.69;;;-145.69;47.77
1726;BME280;41776;48.260;8.928;2024-01-15T07:54:52;52408.75;;;-145.69;47.32
1726;BME280;41776;48.260;8.928;2024-01-15T07:57:18;52404.78;;;-145.69;47.26
1726;BME280;41776;48.260;8.928;2024-01-15T07:59:45;52400.81;;;-145.69;47.44
1726;BME280;41776;48.260;8.928;2024-01-15T08:02:11;52392.91;;;-145.69;46.59
1726;BME280;41776;48.260;8.928;2024-01-15T08:04:37;52379.03;;;-145.69;46.42
1726;BME280;41776;48.260;8.928;2024-01-15T08:07:05;52373.09;;;-145.69;46.03
1726;BME280;41776;48.260;8.928;2024-01-15T08:09:33;52383.00;;;-145.69;46.52
1726;BME280;41776;48.260;8.928;2024-01-15T08:11:59;52392.91;;;-145.69;46.53
1726;BME280;41776;48.260;8.928;2024-01-15T08:14:26;52392.91;;;-145.69;45.87
1726;BME280;41776;48.260;8.928;2024-01-15T08:16:52;52394.88;;;-145.69;45.72
1726;BME280;41776;48.260;8.928;2024-01-15T08:19:19;52377.06;;;-145.69;45.87
1726;BME280;41776;48.260;8.928;2024-01-15T08:21:46;52383.00;;;-145.69;46.10
1726;BME280;41776;48.260;8.928;2024-01-15T08:24:14;52404.78;;;-145.69;45.68
1726;BME280;41776;48.260;8.928;2024-01-15T08:26:42;52381.00;;;-145.69;45.74
1726;BME280;41776;48.260;8.928;2024-01-15T08:29:08;52357.25;;;-145.69;45.57
1726;BME280;41776;48.260;8.928;2024-01-15T08:31:35;52369.13;;;-145.69;45.83
1726;BME280;41776;48.260;8.928;2024-01-15T08:34:01;52381.00;;;-145.69;45.67
1726;BME280;41776;48.260;8.928;2024-01-15T08:36:28;52345.38;;;-145.69;45.40
1726;BME280;41776;48.260;8.928;2024-01-15T08:38:54;52375.06;;;-145.69;45.33
1726;BME280;41776;48.260;8.928;2024-01-15T08:41:22;52357.25;;;-145.69;44.48
1726;BME280;41776;48.260;8.928;2024-01-15T08:43:49;52377.06;;;-145.69;44.09
1726;BME280;41776;48.260;8.928;2024-01-15T08:46:16;52369.13;;;-145.69;43.70
1726;BME280;41776;48.260;8.928;2024-01-15T08:48:43;52359.22;;;-145.69;43.89
1726;BME280;41776;48.260;8.928;2024-01-15T08:51:09;52367.16;;;-145.69;43.41
1726;BME280;41776;48.260;8.928;2024-01-15T08:53:35;52375.06;;;-145.69;43.65
1726;BME280;41776;48.260;8.928;2024-01-15T08:56:02;52384.97;;;-145.69;43.56
1726;BME280;41776;48.260;8.928;2024-01-15T08:58:30;52347.34;;;-145.69;43.02
1726;BME280;41776;48.260;8.928;2024-01-15T09:00:56;52361.22;;;-145.69;43.44
1726;BME280;41776;48.260;8.928;2024-01-15T09:03:23;52396.84;;;-145.69;43.25
1726;BME280;41776;48.260;8.928;2024-01-15T09:05:50;52365.16;;;-145.69;43.74
1726;BME280;41776;48.260;8.928;2024-01-15T09:08:17;52381.00;;;-145.69;42.77
1726;BME280;41776;48.260;8.928;2024-01-15T09:10:43;52365.16;;;-145.69;43.62
1726;BME280;41776;48.260;8.928;2024-01-15T09:13:11;52363.19;;;-145.69;43.60
1726;BME280;41776;48.260;8.928;2024-01-15T09:15:38;52379.03;;;-145.69;44.17
1726;BME280;41776;48.260;8.928;2024-01-15T09:18:05;52375.06;;;-145.69;43.81
1726;BME280;41776;48.260;8.928;2024-01-15T09:20:32;52361.22;;;-145.69;43.97
1726;BME280;41776;48.260;8.928;2024-01-15T09:22:58;52347.34;;;-145.69;44.12
1726;BME280;41776;48.260;8.928;2024-01-15T09:25:25;52394.88;;;-145.69;43.74
1726;BME280;41776;48.260;8.928;2024-01-15T09:27:51;52369.13;;;-145.69;44.09
1726;BME280;41776;48.260;8.928;2024-01-15T09:30:18;52339.44;;;-145.69;43.74
1726;BME280;41776;48.260;8.928;2024-01-15T09:32:46;52396.84;;;-145.69;43.95
1726;BME280;41776;48.260;8.928;2024-01-15T09:35:12;52365.16;;;-145.69;44.10
1726;BME280;41776;48.260;8.928;2024-01-15T09:37:39;52373.09;;;-145.69;44.40
1726;BME280;41776;48.260;8.928;2024-01-15T09:40:07;52361.22;;;-145.69;43.74
1726;BME280;41776;48.260;8.928;2024-01-15T09:42:35;52339.44;;;-145.69;43.80
1726;BME280;41776;48.260;8.928;2024-01-15T09:45:01;52337.44;;;-145.69;43.40
1726;BME280;41776;48.260;8.928;2024-01-15T09:47:29;52317.66;;;-145.69;43.42
1726;BME280;41776;48.260;8.928;2024-01-15T09:49:57;52375.06;;;-145.69;42.87
1726;BME280;41776;48.260;8.928;2024-01-15T09:52:24;52345.38;;;-145.69;43.02
1726;BME280;41776;48.260;8.928;2024-01-15T09:54:51;52388.94;;;-145.69;42.31
1726;BME280;41776;48.260;8.928;2024-01-15T09:57:18;52390.91;;;-145.69;42.82
1726;BME280;41776;48.260;8.928;2024-01-15T09:59:45;52365.16;;;-145.69;42.36
1726;BME280;41776;48.260;8.928;2024-01-15T10:02:14;52301.81;;;-145.69;42.74
1726;BME280;41776;48.260;8.928;2024-01-15T10:04:46;52339.44;;;-145.69;43.03
1726;BME280;41776;48.260;8.928;2024-01-15T10:07:15;52345.38;;;-145.69;42.42
1726;BME280;41776;48.260;8.928;2024-01-15T10:09:44;52359.22;;;-145.69;42.78
1726;BME280;41776;48.260;8.928;2024-01-15T10:12:11;52341.41;;;-145.69;42.18
1726;BME280;41776;48.260;8.928;2024-01-15T10:14:38;52343.38;;;-145.69;42.34
1726;BME280;41776;48.260;8.928;2024-01-15T10:17:12;52335.47;;;-145.69;42.11
1726;BME280;41776;48.260;8.928;2024-01-15T10:19:39;52349.31;;;-145.69;42.13
1726;BME280;41776;48.260;8.928;2024-01-15T10:22:07;52349.31;;;-145.69;42.22
1726;BME280;41776;48.260;8.928;2024-01-15T10:24:36;52345.38;;;-145.69;42.05
1726;BME280;41776;48.260;8.928;2024-01-15T10:27:09;52335.47;;;-145.69;41.64
1726;BME280;41776;48.260;8.928;2024-01-15T10:29:37;52317.66;;;-145.69;41.24
1726;BME280;41776;48.260;8.928;2024-01-15T10:32:06;52369.13;;;-145.69;41.75
1726;BME280;41776;48.260;8.928;2024-01-15T10:34:37;52361.22;;;-145.69;41.06
1726;BME280;41776;48.260;8.928;2024-01-15T10:37:04;52357.25;;;-145.69;41.51
1726;BME280;41776;48.260;8.928;2024-01-15T10:39:30;52349.31;;;-145.69;40.92
1726;BME280;41776;48.260;8.928;2024-01-15T10:42:00;52315.66;;;-145.69;40.74
1726;BME280;41776;48.260;8.928;2024-01-15T10:44:27;52329.53;;;-145.69;41.41
1726;BME280;41776;48.260;8.928;2024-01-15T10:46:55;52357.25;;;-145.69;40.75
1726;BME280;41776;48.260;8.928;2024-01-15T10:49:23;52333.47;;;-145.69;41.20
1726;BME280;41776;48.260;8.928;2024-01-15T10:51:52;52349.31;;;-145.69;41.25
1726;BME280;41776;48.260;8.928;2024-01-15T10:54:19;52337.44;;;-145.69;41.18
1726;BME280;41776;48.260;8.928;2024-01-15T10:56:46;52373.09;;;-145.69;40.71
1726;BME280;41776;48.260;8.928;2024-01-15T10:59:15;52331.50;;;-145.69;41.06
1726;BME280;41776;48.260;8.928;2024-01-15T11:01:42;52381.00;;;-145.69;40.75
1726;BME280;41776;48.260;8.928;2024-01-15T11:04:09;52375.06;;;-145.69;41.10
1726;BME280;41776;48.260;8.928;2024-01-15T11:06:44;52329.53;;;-145.69;41.13
1726;BME280;41776;48.260;8.928;2024-01-15T11:09:11;52297.84;;;-145.69;40.65
1726;BME280;41776;48.260;8.928;2024-01-15T11:11:41;52333.47;;;-145.69;40.75
1726;BME280;41776;48.260;8.928;2024-01-15T11:14:08;52345.38;;;-145.69;41.44
1726;BME280;41776;48.260;8.928;2024-01-15T11:16:55;52309.72;;;-145.69;41.80
1726;BME280;41776;48.260;8.928;2024-01-15T11:19:22;52347.34;;;-145.69;42.15
1726;BME280;41776;48.260;8.928;2024-01-15T11:21:48;52339.44;;;-145.69;41.74
1726;BME280;41776;48.260;8.928;2024-01-15T11:24:33;52327.53;;;-145.69;41.64
1726;BME280;41776;48.260;8.928;2024-01-15T11:27:00;52357.25;;;-145.69;42.18
1726;BME280;41776;48.260;8.928;2024-01-15T11:29:31;52321.59;;;-145.69;42.36
1726;BME280;41776;48.260;8.928;2024-01-15T11:32:02;52339.44;;;-145.69;42.08
1726;BME280;41776;48.260;8.928;2024-01-15T11:34:58;52341.41;;;-145.69;42.32
1726;BME280;41776;48.260;8.928;2024-01-15T11:37:27;52369.13;;;-145.69;42.43
1726;BME280;41776;48.260;8.928;2024-01-15T11:39:55;52357.25;;;-145.69;42.86
1726;BME280;41776;48.260;8.928;2024-01-15T11:42:22;52367.16;;;-145.69;42.77
1726;BME280;41776;48.260;8.928;2024-01-15T11:44:49;52351.31;;;-145.69;43.07
1726;BME280;41776;48.260;8.928;2024-01-15T11:47:30;52327.53;;;-145.69;43.35
1726;BME280;41776;48.260;8.928;2024-01-15T11:50:05;52373.09;;;-145.69;43.44
1726;BME280;41776;48.260;8.928;2024-01-15T11:52:34;52305.75;;;-145.69;43.42
1726;BME280;41776;48.260;8.928;2024-01-15T11:55:10;52309.72;;;-145.69;44.03
1726;BME280;41776;48.260;8.928;2024-01-15T11:57:41;52377.06;;;-145.69;45.72
1726;BME280;41776;48.260;8.928;2024-01-15T12:00:09;52353.28;;;-145.69;45.86
1726;BME280;41776;48.260;8.928;2024-01-15T12:02:37;52325.56;;;-145.69;48.07
1726;BME280;41776;48.260;8.928;2024-01-15T12:05:04;52333.47;;;-145.69;48.41
1726;BME280;41776;48.260;8.928;2024-01-15T12:07:31;52341.41;;;-145.69;48.59
1726;BME280;41776;48.260;8.928;2024-01-15T12:09:57;52323.59;;;-145.69;49.05
1726;BME280;41776;48.260;8.928;2024-01-15T12:12:35;52331.50;;;-145.69;48.74
1726;BME280;41776;48.260;8.928;2024-01-15T12:15:04;52365.16;;;-145.69;49.00
1726;BME280;41776;48.260;8.928;2024-01-15T12:17:31;52337.44;;;-145.69;49.25
1726;BME280;41776;48.260;8.928;2024-01-15T12:19:59;52345.38;;;-145.69;49.16
1726;BME280;41776;48.260;8.928;2024-01-15T12:22:26;52381.00;;;-145.69;49.10
1726;BME280;41776;48.260;8.928;2024-01-15T12:24:53;52345.38;;;-145.69;49.49
1726;BME280;41776;48.260;8.928;2024-01-15T12:27:20;52365.16;;;-145.69;49.64
1726;BME280;41776;48.260;8.928;2024-01-15T12:29:47;52357.25;;;-145.69;50.17
1726;BME280;41776;48.260;8.928;2024-01-15T12:32:13;52345.38;;;-145.69;48.71
1726;BME280;41776;48.260;8.928;2024-01-15T12:34:39;52341.41;;;-145.69;48.39
1726;BME280;41776;48.260;8.928;2024-01-15T12:37:08;52349.31;;;-145.69;48.71
1726;BME280;41776;48.260;8.928;2024-01-15T12:39:34;52402.78;;;-145.69;47.45
1726;BME280;41776;48.260;8.928;2024-01-15T12:42:01;52333.47;;;-145.69;47.81
1726;BME280;41776;48.260;8.928;2024-01-15T12:44:28;52343.38;;;-145.69;46.85
1726;BME280;41776;48.260;8.928;2024-01-15T12:46:55;52369.13;;;-145.69;46.94
1726;BME280;41776;48.260;8.928;2024-01-15T12:49:23;52369.13;;;-145.69;48.77
1726;BME280;41776;48.260;8.928;2024-01-15T12:51:53;52345.38;;;-145.69;52.03